Norton, Massachusetts
Current Conditions -  °F | °C
As of 1:30 AM on Wednesday 28 Jan 2015 (Local Time) from KTAN Reporting Station
Broken Clouds Broken Clouds  
Wind Chill:   Ceiling: 7000
Heat Index: 15°   Visibility: 10mi
Dew Point:   Wind: 9mph
Humidity: 68%   Direction: 310°NW
Pressure: 29.68"   Gusts: 20mph
Location:  41.97°N, 71.19°W
Report Text: KTAN 280630Z AUTO 31008G17KT 10SM SCT028 SCT034 BKN070 M09/M14 A2968 RMK AO2 T10941144 PWINO FZRANO $
Loading
Personal Weather Stations






























Interactive Weather Map New forecast layout! Learn more

10-Day Weather Forecast

Advertisements
Track Severe Weather on mobile